createdAt,value
2022-07-29T00:00:25.590Z,63.22
2022-07-29T00:05:29.063Z,63.88
2022-07-29T00:10:31.240Z,63.08
2022-07-29T00:15:32.971Z,61.92
2022-07-29T00:20:36.387Z,60.74
2022-07-29T00:25:38.597Z,60.24
2022-07-29T00:30:40.704Z,60.61
2022-07-29T00:35:44.150Z,61.18
2022-07-29T00:40:46.560Z,62.07
2022-07-29T00:45:48.883Z,62.10
2022-07-29T00:50:52.793Z,62.48
2022-07-29T00:55:56.633Z,62.32
2022-07-29T01:00:59.695Z,62.27
2022-07-29T01:06:03.155Z,63.73
2022-07-29T01:11:05.318Z,61.76
2022-07-29T01:16:14.220Z,60.96
2022-07-29T01:21:41.192Z,60.71
2022-07-29T01:26:48.647Z,60.58
2022-07-29T01:32:00.690Z,60.68
2022-07-29T01:37:09.228Z,60.90
2022-07-29T01:42:16.361Z,61.67
2022-07-29T01:47:24.243Z,61.38
2022-07-29T01:52:33.098Z,62.17
2022-07-29T01:57:39.171Z,61.75
2022-07-29T02:02:45.666Z,61.93
2022-07-29T02:07:49.951Z,63.52
2022-07-29T02:12:53.526Z,63.87
2022-07-29T02:18:01.298Z,63.84
2022-07-29T02:23:04.228Z,64.23
2022-07-29T02:28:08.680Z,64.03
2022-07-29T02:33:16.013Z,64.17
2022-07-29T02:38:19.152Z,63.57
2022-07-29T02:43:23.467Z,63.55
2022-07-29T02:48:34.707Z,63.63
2022-07-29T02:53:39.235Z,63.25
2022-07-29T02:58:46.425Z,63.09
2022-07-29T03:03:54.071Z,62.98
2022-07-29T03:08:57.828Z,63.21
2022-07-29T03:14:00.254Z,63.04
2022-07-29T03:19:04.743Z,63.14
2022-07-29T03:24:10.521Z,63.13
2022-07-29T03:29:13.418Z,63.33
2022-07-29T03:34:17.480Z,63.28
2022-07-29T03:39:23.099Z,63.44
2022-07-29T03:44:27.799Z,63.70
2022-07-29T03:49:33.724Z,63.57
2022-07-29T03:54:35.988Z,63.17
2022-07-29T03:59:39.306Z,62.66
2022-07-29T04:04:42.901Z,62.83
2022-07-29T04:09:45.019Z,62.60
2022-07-29T04:14:46.708Z,62.44
2022-07-29T04:19:50.173Z,62.59
2022-07-29T04:24:52.340Z,62.06
2022-07-29T04:29:56.143Z,62.59
2022-07-29T04:35:00.225Z,62.17
2022-07-29T04:40:02.416Z,62.01
2022-07-29T04:45:05.200Z,61.77
2022-07-29T04:50:11.635Z,61.52
2022-07-29T04:55:13.352Z,60.63
2022-07-29T05:00:15.290Z,60.41
2022-07-29T05:05:18.458Z,60.05
2022-07-29T05:10:20.211Z,60.61
2022-07-29T05:15:21.888Z,60.60
2022-07-29T05:20:25.058Z,60.71
2022-07-29T05:25:43.997Z,60.18
2022-07-29T05:30:46.924Z,59.66
2022-07-29T05:35:50.320Z,58.85
2022-07-29T05:40:51.965Z,57.51
2022-07-29T05:45:53.663Z,57.17
2022-07-29T05:50:57.886Z,57.01
2022-07-29T05:56:06.171Z,56.36
2022-07-29T06:01:08.024Z,56.09
2022-07-29T06:06:11.608Z,55.56
2022-07-29T06:11:13.323Z,55.60
2022-07-29T06:16:15.762Z,54.47
2022-07-29T06:21:31.959Z,54.45
2022-07-29T06:26:39.214Z,54.02
2022-07-29T06:31:41.772Z,53.45
2022-07-29T06:36:45.219Z,54.00
2022-07-29T06:41:48.756Z,52.01
2022-07-29T06:46:50.982Z,50.38
2022-07-29T06:51:54.621Z,49.98
2022-07-29T06:56:56.361Z,50.08
2022-07-29T07:01:58.174Z,50.04
2022-07-29T07:07:01.976Z,48.14
2022-07-29T07:12:04.412Z,45.38
2022-07-29T07:17:06.537Z,43.92
2022-07-29T07:22:10.077Z,44.31
2022-07-29T07:27:11.839Z,44.30
2022-07-29T07:32:13.979Z,44.59
2022-07-29T07:37:17.333Z,40.98
2022-07-29T07:42:20.150Z,42.00
2022-07-29T07:47:22.292Z,42.51
2022-07-29T07:52:26.118Z,41.88
2022-07-29T07:57:28.243Z,38.41
2022-07-29T08:02:29.968Z,35.11
2022-07-29T08:07:33.866Z,33.58
2022-07-29T08:12:35.910Z,35.48
2022-07-29T08:17:38.159Z,36.25
2022-07-29T08:22:41.670Z,35.07
2022-07-29T08:27:44.380Z,34.34
2022-07-29T08:32:54.796Z,34.10
2022-07-29T08:37:59.023Z,35.38
2022-07-29T08:43:06.375Z,34.61
2022-07-29T08:48:08.573Z,34.25
2022-07-29T08:53:15.871Z,33.30
2022-07-29T08:58:23.297Z,34.94
2022-07-29T09:03:31.956Z,36.10
2022-07-29T09:08:35.459Z,35.70
2022-07-29T09:13:37.582Z,35.63
2022-07-29T09:18:41.723Z,35.35
2022-07-29T09:29:14.141Z,35.17
2022-07-29T09:34:18.050Z,33.02
2022-07-29T09:39:29.861Z,28.75
2022-07-29T09:44:50.623Z,29.20
2022-07-29T09:49:54.880Z,30.38
2022-07-29T09:55:06.079Z,29.67
2022-07-29T10:00:12.396Z,28.51
2022-07-29T10:05:20.741Z,27.24
2022-07-29T10:10:24.932Z,28.82
2022-07-29T10:15:30.452Z,30.17
2022-07-29T10:20:32.412Z,30.71
2022-07-29T10:25:34.810Z,30.78
2022-07-29T10:30:40.962Z,31.39
2022-07-29T10:35:59.486Z,30.43
2022-07-29T10:41:12.039Z,27.21
2022-07-29T10:46:23.811Z,24.69
2022-07-29T10:52:11.064Z,26.22
2022-07-29T10:57:21.931Z,27.76
2022-07-29T11:02:49.855Z,28.96
2022-07-29T11:13:52.213Z,29.52
2022-07-29T11:19:31.350Z,31.26
2022-07-29T11:24:35.806Z,31.68
2022-07-29T11:29:43.082Z,31.67
2022-07-29T11:34:45.439Z,30.54
2022-07-29T11:40:10.812Z,31.22
2022-07-29T11:45:42.945Z,31.88
2022-07-29T11:50:44.620Z,31.84
2022-07-29T11:55:56.174Z,31.59
2022-07-29T12:01:04.494Z,31.35
2022-07-29T12:06:13.191Z,32.68
2022-07-29T12:11:21.782Z,32.95
2022-07-29T12:16:25.595Z,31.69
2022-07-29T12:21:49.450Z,30.83
2022-07-29T12:26:58.775Z,31.50
2022-07-29T12:32:00.827Z,31.07
2022-07-29T12:37:04.265Z,30.46
2022-07-29T12:42:14.877Z,30.13
2022-07-29T12:47:17.620Z,30.08
2022-07-29T12:52:30.124Z,30.92
2022-07-29T12:57:44.729Z,30.66
2022-07-29T13:02:56.159Z,30.94
2022-07-29T13:08:20.176Z,31.61
2022-07-29T13:13:25.747Z,31.16
2022-07-29T13:18:29.047Z,30.34
2022-07-29T13:23:30.980Z,30.93
2022-07-29T13:28:34.597Z,30.63
2022-07-29T13:33:36.648Z,30.28
2022-07-29T13:38:38.640Z,29.49
2022-07-29T13:43:41.991Z,32.13
2022-07-29T13:48:43.750Z,31.30
2022-07-29T13:53:45.435Z,30.77
2022-07-29T13:58:48.583Z,30.42
2022-07-29T14:03:50.728Z,30.34
2022-07-29T14:08:52.490Z,30.92
2022-07-29T14:13:55.548Z,30.21
2022-07-29T14:18:57.276Z,30.09
2022-07-29T14:23:59.009Z,30.10
2022-07-29T14:29:03.271Z,30.56
2022-07-29T14:34:05.472Z,29.41
2022-07-29T14:39:07.373Z,29.09
2022-07-29T14:44:11.193Z,29.09
2022-07-29T14:49:13.303Z,29.66
2022-07-29T14:54:15.044Z,28.04
2022-07-29T14:59:18.255Z,29.27
2022-07-29T15:04:20.375Z,30.03
2022-07-29T15:09:22.075Z,30.06
2022-07-29T15:14:25.174Z,29.35
2022-07-29T15:19:26.831Z,28.75
2022-07-29T15:24:28.562Z,29.23
2022-07-29T15:29:32.074Z,28.83
2022-07-29T15:34:33.871Z,29.22
2022-07-29T15:39:35.839Z,29.22
2022-07-29T15:44:39.431Z,27.27
2022-07-29T15:49:48.056Z,27.08
2022-07-29T15:54:50.965Z,27.71
2022-07-29T15:59:54.433Z,27.95
2022-07-29T16:04:56.409Z,28.26
2022-07-29T16:09:58.420Z,28.06
2022-07-29T16:15:06.244Z,27.68
2022-07-29T16:20:13.762Z,29.23
2022-07-29T16:25:16.021Z,28.91
2022-07-29T16:30:19.963Z,28.80
2022-07-29T16:35:22.060Z,30.03
2022-07-29T16:40:24.384Z,30.82
2022-07-29T16:45:30.350Z,29.95
2022-07-29T16:50:43.921Z,30.81
2022-07-29T16:55:53.425Z,30.46
2022-07-29T17:00:57.863Z,30.58
2022-07-29T17:05:59.992Z,30.13
2022-07-29T17:11:02.090Z,31.30
2022-07-29T17:16:06.153Z,31.05
2022-07-29T17:21:08.266Z,31.02
2022-07-29T17:26:10.004Z,31.28
2022-07-29T17:31:13.120Z,31.81
2022-07-29T17:36:15.334Z,32.55
2022-07-29T17:41:17.085Z,32.26
2022-07-29T17:46:22.684Z,32.28
2022-07-29T17:51:25.913Z,32.13
2022-07-29T17:56:28.221Z,32.26
2022-07-29T18:01:31.478Z,32.85
2022-07-29T18:06:33.777Z,32.69
2022-07-29T18:11:35.854Z,33.09
2022-07-29T18:16:39.574Z,33.65
2022-07-29T18:21:44.362Z,34.04
2022-07-29T18:26:57.117Z,33.89
2022-07-29T18:32:00.525Z,34.49
2022-07-29T18:37:02.564Z,34.91
2022-07-29T18:42:04.558Z,35.12
2022-07-29T18:47:07.939Z,35.04
2022-07-29T18:52:14.028Z,35.94
2022-07-29T18:57:55.306Z,35.89
2022-07-29T19:02:39.739Z,36.12
2022-07-29T19:07:44.749Z,36.27
2022-07-29T19:12:46.802Z,36.82
2022-07-29T19:17:49.877Z,37.16
2022-07-29T19:22:52.019Z,37.12
2022-07-29T19:27:54.231Z,37.43
2022-07-29T19:32:59.731Z,37.99
2022-07-29T19:38:02.866Z,37.45
2022-07-29T19:43:51.149Z,37.96
2022-07-29T19:48:29.723Z,38.43
2022-07-29T19:53:31.529Z,38.44
2022-07-29T19:58:33.324Z,38.68
2022-07-29T20:03:37.862Z,39.15
2022-07-29T20:08:40.203Z,39.72
2022-07-29T20:13:41.862Z,39.22
2022-07-29T20:18:45.274Z,39.73
2022-07-29T20:23:47.391Z,39.86
2022-07-29T20:28:49.816Z,40.20
2022-07-29T20:33:52.916Z,40.41
2022-07-29T20:38:55.390Z,40.29
2022-07-29T20:43:57.133Z,39.83
2022-07-29T20:49:00.536Z,40.01
2022-07-29T20:54:02.371Z,40.31
2022-07-29T20:59:04.239Z,40.46
2022-07-29T21:04:07.293Z,40.68
2022-07-29T21:09:09.524Z,40.66
2022-07-29T21:14:11.668Z,40.96
2022-07-29T21:19:15.088Z,41.42
2022-07-29T21:24:17.190Z,40.81
2022-07-29T21:29:19.239Z,41.85
2022-07-29T21:34:22.630Z,41.54
2022-07-29T21:39:24.759Z,41.68
2022-07-29T21:44:26.791Z,41.66
2022-07-29T21:49:30.198Z,41.70
2022-07-29T21:54:32.338Z,42.13
2022-07-29T21:59:34.051Z,42.52
2022-07-29T22:04:37.490Z,42.28
2022-07-29T22:09:39.343Z,43.42
2022-07-29T22:14:41.387Z,42.08
2022-07-29T22:19:44.746Z,43.25
2022-07-29T22:24:46.541Z,43.37
2022-07-29T22:29:48.444Z,43.02
2022-07-29T22:34:52.317Z,43.41
2022-07-29T22:39:54.319Z,43.61
2022-07-29T22:44:56.690Z,43.95
2022-07-29T22:50:00.396Z,43.19
2022-07-29T22:55:03.043Z,43.65
2022-07-29T23:00:06.561Z,43.70
2022-07-29T23:05:10.657Z,43.85
2022-07-29T23:10:12.500Z,44.13
2022-07-29T23:15:14.596Z,44.30
2022-07-29T23:20:17.659Z,43.97
2022-07-29T23:25:20.167Z,44.38
2022-07-29T23:30:22.151Z,44.83
2022-07-29T23:35:25.666Z,44.61
2022-07-29T23:40:27.836Z,45.43
2022-07-29T23:45:40.006Z,45.04
2022-07-29T23:50:48.218Z,45.74
2022-07-29T23:55:50.260Z,45.67
